Time;durP1;ratioP1;P1;durP2;ratioP2;P2;SDS_P1;SDS_P2;PMS_P1;PMS_P2;Temp;Humidity;BMP_temperature;BMP_pressure;BME280_temperature;BME280_humidity;BME280_pressure;Samples;Min_cycle;Max_cycle;Signal;HPM_P1;HPM_P2
2021/04/23 00:01:48;;;;;;;11.93;4.50;;;8.40;77.00;;;;;;5013215;28;20041;-81
2021/04/23 00:04:16;;;;;;;12.97;3.90;;;8.30;77.40;;;;;;5013232;28;20048;-82
2021/04/23 00:06:47;;;;;;;14.03;5.37;;;8.30;77.90;;;;;;4995252;28;20040;-81
2021/04/23 00:09:28;;;;;;;13.83;4.27;;;8.20;78.40;;;;;;5013171;28;20044;-82
2021/04/23 00:12:00;;;;;;;12.80;4.30;;;8.30;77.90;;;;;;4998601;28;20037;-82
2021/04/23 00:14:33;;;;;;;14.17;4.43;;;8.30;77.90;;;;;;5018160;28;20030;-82
2021/04/23 00:16:58;;;;;;;13.40;4.50;;;8.20;78.30;;;;;;5017738;28;20096;-82
2021/04/23 00:19:25;;;;;;;12.60;3.90;;;8.20;78.20;;;;;;5017612;28;20018;-82
2021/04/23 00:21:53;;;;;;;11.07;4.13;;;8.10;78.80;;;;;;4999985;28;20037;-82
2021/04/23 00:24:19;;;;;;;12.90;4.67;;;8.20;79.50;;;;;;5018542;28;20101;-82
2021/04/23 00:26:45;;;;;;;11.23;4.73;;;8.10;78.90;;;;;;5018372;28;20081;-82
2021/04/23 00:29:11;;;;;;;14.63;4.70;;;8.10;78.80;;;;;;5017365;28;20025;-83
2021/04/23 00:31:39;;;;;;;13.07;4.30;;;8.10;79.10;;;;;;5018362;28;20398;-82
2021/04/23 00:34:05;;;;;;;13.10;4.80;;;8.10;79.10;;;;;;5000669;28;20044;-82
2021/04/23 00:36:31;;;;;;;13.93;4.90;;;8.00;79.20;;;;;;5018121;28;20462;-82
2021/04/23 00:38:57;;;;;;;13.97;5.20;;;8.00;79.50;;;;;;5018707;28;20034;-82
2021/04/23 00:41:31;;;;;;;11.93;4.90;;;8.00;80.20;;;;;;5001207;28;20026;-82
2021/04/23 00:43:57;;;;;;;10.10;4.57;;;8.00;80.00;;;;;;5027626;28;20101;-82
2021/04/23 00:46:31;;;;;;;14.10;4.80;;;8.00;79.70;;;;;;5010768;28;20350;-82
2021/04/23 00:48:59;;;;;;;11.73;4.57;;;7.80;81.10;;;;;;5020170;28;20054;-81
2021/04/23 00:51:34;;;;;;;14.27;4.73;;;7.60;80.90;;;;;;5014483;28;20096;-81
2021/04/23 00:54:01;;;;;;;11.10;4.37;;;7.70;81.20;;;;;;5014193;28;20025;-81
2021/04/23 00:56:35;;;;;;;12.30;5.00;;;7.80;81.10;;;;;;5013952;28;20113;-81
2021/04/23 00:59:03;;;;;;;11.80;4.63;;;7.60;81.50;;;;;;5013424;28;20034;-81
2021/04/23 01:01:33;;;;;;;9.73;4.47;;;7.50;81.70;;;;;;5013786;28;20030;-81
2021/04/23 01:04:00;;;;;;;11.70;5.10;;;7.50;82.10;;;;;;5013729;28;20109;-81
2021/04/23 01:06:29;;;;;;;12.00;5.10;;;7.50;82.00;;;;;;4996151;28;20037;-81
2021/04/23 01:08:57;;;;;;;14.00;5.10;;;7.50;81.70;;;;;;5031694;22;20022;-82
2021/04/23 01:11:24;;;;;;;21.07;6.07;;;7.60;81.60;;;;;;5036925;28;20380;-81
2021/04/23 01:13:52;;;;;;;12.27;4.70;;;7.70;81.10;;;;;;5037955;28;20029;-82
2021/04/23 01:16:21;;;;;;;15.73;5.10;;;7.60;82.30;;;;;;5038404;28;20022;-83
2021/04/23 01:18:48;;;;;;;16.60;5.05;;;7.60;81.90;;;;;;5037665;28;20078;-81
2021/04/23 01:21:20;;;;;;;10.90;4.33;;;7.60;81.40;;;;;;5055479;28;20051;-83
2021/04/23 01:23:48;;;;;;;15.67;5.17;;;7.60;81.60;;;;;;5035960;28;20028;-83
2021/04/23 01:26:16;;;;;;;12.07;4.97;;;7.60;82.40;;;;;;5037161;28;20025;-82
2021/04/23 01:28:43;;;;;;;12.50;4.43;;;7.50;82.70;;;;;;5036443;28;20017;-83
2021/04/23 01:31:11;;;;;;;13.50;4.60;;;7.50;82.40;;;;;;5036457;28;20082;-81
2021/04/23 01:33:39;;;;;;;15.63;4.83;;;7.50;82.20;;;;;;5054349;28;20319;-83
2021/04/23 01:36:06;;;;;;;13.17;5.60;;;7.50;82.30;;;;;;5054534;28;20048;-82
2021/04/23 01:38:33;;;;;;;13.50;5.10;;;7.40;82.40;;;;;;5054907;28;20060;-82
2021/04/23 01:40:59;;;;;;;12.80;4.90;;;7.30;82.80;;;;;;5053732;28;20017;-81
2021/04/23 01:43:24;;;;;;;12.60;5.10;;;7.20;83.20;;;;;;5036135;28;20044;-81
2021/04/23 01:45:50;;;;;;;16.10;5.40;;;7.30;83.50;;;;;;5039387;28;20025;-83
2021/04/23 01:48:16;;;;;;;13.57;5.10;;;7.30;83.20;;;;;;5040726;28;20029;-82
2021/04/23 01:50:43;;;;;;;14.77;5.17;;;7.30;83.30;;;;;;5041141;28;20036;-84
2021/04/23 01:53:09;;;;;;;14.43;5.07;;;7.20;83.20;;;;;;5042256;28;20029;-84
2021/04/23 01:55:35;;;;;;;11.43;5.10;;;7.10;83.60;;;;;;5041794;28;20713;-84
2021/04/23 01:58:02;;;;;;;12.87;5.23;;;7.20;83.60;;;;;;5041421;28;20430;-82
2021/04/23 02:00:31;;;;;;;14.10;4.97;;;7.30;83.20;;;;;;5040671;28;20029;-83
2021/04/23 02:03:00;;;;;;;17.95;5.30;;;7.20;83.30;;;;;;5059792;28;20021;-82
2021/04/23 02:05:26;;;;;;;17.03;6.03;;;7.20;83.70;;;;;;5041399;28;20131;-84
2021/04/23 02:07:53;;;;;;;13.77;5.33;;;7.00;84.60;;;;;;5058203;28;20029;-84
2021/04/23 02:10:26;;;;;;;15.43;5.23;;;7.10;84.50;;;;;;5041680;28;20128;-83
2021/04/23 02:12:52;;;;;;;15.00;5.33;;;6.90;84.70;;;;;;5041296;28;20092;-81
2021/04/23 02:15:19;;;;;;;12.80;5.67;;;6.90;85.10;;;;;;5041326;28;20033;-82
2021/04/23 02:17:45;;;;;;;15.60;5.40;;;6.80;85.30;;;;;;5058427;28;20025;-84
2021/04/23 02:20:15;;;;;;;13.30;5.10;;;6.80;85.50;;;;;;5042556;28;20441;-84
2021/04/23 02:22:43;;;;;;;15.67;5.80;;;6.70;85.90;;;;;;5042883;28;20508;-83
2021/04/23 02:25:11;;;;;;;12.50;5.10;;;6.70;85.80;;;;;;5061559;28;20072;-84
2021/04/23 02:27:37;;;;;;;15.50;5.50;;;6.60;86.00;;;;;;5043113;28;20115;-84
2021/04/23 02:30:12;;;;;;;17.43;5.63;;;6.50;86.30;;;;;;5042464;28;20049;-84
2021/04/23 02:32:38;;;;;;;18.30;5.73;;;6.40;86.50;;;;;;5043162;28;20091;-80
2021/04/23 02:35:06;;;;;;;14.67;6.33;;;6.30;86.40;;;;;;5042271;28;20111;-82
2021/04/23 02:37:32;;;;;;;15.67;5.60;;;6.30;87.20;;;;;;5060165;28;20122;-82
2021/04/23 02:39:58;;;;;;;12.43;5.70;;;6.30;87.20;;;;;;5061151;28;20458;-82
2021/04/23 02:42:24;;;;;;;12.53;5.40;;;6.30;87.50;;;;;;5042504;28;20032;-81
2021/04/23 02:44:50;;;;;;;14.47;5.60;;;6.30;87.20;;;;;;5060724;28;20040;-82
2021/04/23 02:47:16;;;;;;;17.97;6.53;;;6.30;86.90;;;;;;5043557;28;20029;-83
2021/04/23 02:49:42;;;;;;;14.07;5.73;;;6.30;87.20;;;;;;5041971;28;20037;-83
2021/04/23 02:52:07;;;;;;;16.07;5.70;;;6.20;87.60;;;;;;5042490;28;20064;-84
2021/04/23 02:54:33;;;;;;;18.07;6.13;;;6.20;87.90;;;;;;5042010;28;20044;-82
2021/04/23 02:56:59;;;;;;;13.77;5.17;;;6.20;87.90;;;;;;5042122;28;20033;-82
2021/04/23 02:59:24;;;;;;;14.97;6.30;;;6.20;87.70;;;;;;5059136;28;20075;-81
2021/04/23 03:01:56;;;;;;;15.77;5.73;;;6.20;87.80;;;;;;5040955;28;20023;-85
2021/04/23 03:04:22;;;;;;;13.10;5.73;;;6.10;87.90;;;;;;5028783;28;20049;-84
2021/04/23 03:06:49;;;;;;;15.77;6.33;;;6.00;87.90;;;;;;5026581;28;20022;-84
2021/04/23 03:09:15;;;;;;;16.53;5.60;;;6.00;88.70;;;;;;5019142;28;20087;-84
2021/04/23 03:11:42;;;;;;;16.77;6.47;;;6.00;88.70;;;;;;5035691;28;20033;-84
2021/04/23 03:14:08;;;;;;;14.13;5.50;;;5.90;88.60;;;;;;5018603;28;20030;-84
2021/04/23 03:16:35;;;;;;;14.60;6.37;;;5.90;88.70;;;;;;5037448;28;20029;-85
2021/04/23 03:19:02;;;;;;;15.77;6.10;;;5.90;89.00;;;;;;5020790;28;20034;-84
2021/04/23 03:21:29;;;;;;;15.83;6.10;;;5.90;89.00;;;;;;5021052;28;20552;-84
2021/04/23 03:23:56;;;;;;;17.30;5.90;;;5.90;89.70;;;;;;5037566;28;20025;-82
2021/04/23 03:26:23;;;;;;;16.43;6.17;;;5.80;89.30;;;;;;5019653;28;20021;-81
2021/04/23 03:28:49;;;;;;;14.30;6.20;;;5.60;90.10;;;;;;5019324;28;20564;-81
2021/04/23 03:31:16;;;;;;;14.80;6.47;;;5.20;90.90;;;;;;5055769;28;20021;-84
2021/04/23 03:33:43;;;;;;;12.10;5.77;;;5.20;91.10;;;;;;5057796;28;20017;-80
2021/04/23 03:36:11;;;;;;;14.63;6.23;;;5.10;91.40;;;;;;5040346;28;20025;-81
2021/04/23 03:38:40;;;;;;;19.63;6.40;;;5.00;91.50;;;;;;5040098;28;20243;-81
2021/04/23 03:41:10;;;;;;;14.15;6.25;;;5.00;91.80;;;;;;5039382;28;20021;-81
2021/04/23 03:43:36;;;;;;;20.17;7.23;;;4.90;91.70;;;;;;5039371;28;20084;-81
2021/04/23 03:46:02;;;;;;;16.13;7.00;;;4.90;92.10;;;;;;5056882;28;20025;-81
2021/04/23 03:48:28;;;;;;;17.70;6.90;;;4.90;91.90;;;;;;5057239;28;20085;-81
2021/04/23 03:50:53;;;;;;;17.43;6.83;;;4.80;92.00;;;;;;5039937;28;20125;-81
2021/04/23 03:53:19;;;;;;;18.67;7.17;;;4.80;91.90;;;;;;5039816;28;20029;-81
2021/04/23 03:55:48;;;;;;;15.17;7.43;;;5.00;92.30;;;;;;5057093;28;20074;-81
2021/04/23 03:58:15;;;;;;;;;;;5.10;91.60;;;;;;5039939;28;20492;-81
2021/04/23 04:00:47;;;;;;;14.43;6.43;;;4.90;91.70;;;;;;5058234;28;20318;-81
2021/04/23 04:03:14;;;;;;;16.10;6.37;;;4.80;92.10;;;;;;5050272;28;20024;-81
2021/04/23 04:05:40;;;;;;;21.77;7.27;;;4.90;92.10;;;;;;5071550;28;20018;-81
2021/04/23 04:08:06;;;;;;;16.03;6.17;;;4.90;91.90;;;;;;5071795;28;20033;-80
2021/04/23 04:10:32;;;;;;;16.47;6.87;;;4.80;92.10;;;;;;5054168;28;20097;-81
2021/04/23 04:12:58;;;;;;;17.40;6.70;;;4.80;92.20;;;;;;5054487;28;20245;-81
2021/04/23 04:15:25;;;;;;;15.53;6.93;;;4.90;92.00;;;;;;5054214;28;20048;-82
2021/04/23 04:17:51;;;;;;;18.57;7.07;;;4.90;92.20;;;;;;5056079;28;20029;-82
2021/04/23 04:20:18;;;;;;;16.63;6.50;;;5.10;91.60;;;;;;5035618;28;20025;-82
2021/04/23 04:22:44;;;;;;;17.60;6.60;;;5.20;91.30;;;;;;5053694;28;20112;-82
2021/04/23 04:25:14;;;;;;;15.67;6.47;;;5.30;91.20;;;;;;5053361;28;20028;-82
2021/04/23 04:27:41;;;;;;;14.43;6.93;;;5.30;91.10;;;;;;5034238;28;20120;-81
2021/04/23 04:30:08;;;;;;;18.10;6.53;;;5.30;90.90;;;;;;5051841;28;20029;-82
2021/04/23 04:32:34;;;;;;;15.83;6.30;;;5.40;90.90;;;;;;5034481;28;20033;-82
2021/04/23 04:35:00;;;;;;;17.50;6.93;;;5.30;90.90;;;;;;5052292;28;20044;-83
2021/04/23 04:37:26;;;;;;;17.33;7.30;;;5.40;90.80;;;;;;5053012;28;20033;-83
2021/04/23 04:39:51;;;;;;;21.63;6.60;;;5.40;90.80;;;;;;5034124;28;20083;-81
2021/04/23 04:42:17;;;;;;;16.47;6.03;;;5.50;90.60;;;;;;5052636;28;20052;-82
2021/04/23 04:44:43;;;;;;;20.20;7.40;;;5.60;90.40;;;;;;5033721;28;20454;-83
2021/04/23 04:47:09;;;;;;;20.50;7.53;;;5.50;90.40;;;;;;5052622;28;20616;-83
2021/04/23 04:49:34;;;;;;;20.90;7.30;;;5.60;90.00;;;;;;5033381;28;20043;-82
2021/04/23 04:52:00;;;;;;;15.93;6.77;;;5.60;90.50;;;;;;5034246;28;20035;-84
2021/04/23 04:54:26;;;;;;;17.67;7.43;;;5.60;90.50;;;;;;5034587;28;20067;-83
2021/04/23 04:56:52;;;;;;;25.17;7.40;;;5.60;90.70;;;;;;5035014;28;20067;-81
2021/04/23 04:59:18;;;;;;;15.93;6.87;;;5.60;90.60;;;;;;5055245;28;20021;-82
2021/04/23 05:01:44;;;;;;;22.53;7.63;;;5.70;90.50;;;;;;5038468;28;20052;-84
2021/04/23 05:04:09;;;;;;;15.83;6.40;;;5.80;90.20;;;;;;5039100;28;20381;-82
2021/04/23 05:06:35;;;;;;;18.40;7.40;;;5.80;90.20;;;;;;5039618;28;20127;-84
2021/04/23 05:09:01;;;;;;;21.23;7.40;;;5.70;90.50;;;;;;5039047;28;20078;-83
2021/04/23 05:11:26;;;;;;;18.10;6.80;;;5.70;90.60;;;;;;5056992;28;20037;-82
2021/04/23 05:13:52;;;;;;;23.20;7.80;;;5.70;90.70;;;;;;5042454;28;20033;-82
2021/04/23 05:16:18;;;;;;;15.90;7.10;;;5.70;90.50;;;;;;5061876;28;20416;-85
2021/04/23 05:18:43;;;;;;;21.17;7.20;;;5.80;90.50;;;;;;5043524;28;20620;-84
2021/04/23 05:21:09;;;;;;;22.50;7.37;;;5.80;90.60;;;;;;5062260;28;20117;-84
2021/04/23 05:23:35;;;;;;;27.03;7.57;;;5.90;90.40;;;;;;5040718;28;20021;-83
2021/04/23 05:26:01;;;;;;;20.40;7.07;;;5.90;90.40;;;;;;5037738;28;20055;-82
2021/04/23 05:28:26;;;;;;;18.17;6.97;;;6.00;90.40;;;;;;5055460;28;20175;-83
2021/04/23 05:30:52;;;;;;;16.30;7.00;;;5.90;90.30;;;;;;5055696;28;20040;-83
2021/04/23 05:33:18;;;;;;;19.00;6.33;;;5.90;90.40;;;;;;5040605;28;20166;-83
2021/04/23 05:35:44;;;;;;;17.67;6.93;;;6.00;90.50;;;;;;5056747;28;20029;-83
2021/04/23 05:38:11;;;;;;;15.77;6.63;;;6.10;90.20;;;;;;5038831;28;20116;-83
2021/04/23 05:40:47;;;;;;;17.00;6.90;;;6.20;90.20;;;;;;5021781;28;20021;-82
2021/04/23 05:43:15;;;;;;;20.10;6.63;;;6.30;89.80;;;;;;5017417;28;20028;-83
2021/04/23 05:45:42;;;;;;;18.60;6.83;;;6.30;89.80;;;;;;5034818;28;20137;-83
2021/04/23 05:48:08;;;;;;;15.97;6.13;;;6.40;90.00;;;;;;5035094;28;20558;-83
2021/04/23 05:50:37;;;;;;;22.80;7.23;;;6.40;89.60;;;;;;5017315;28;20026;-83
2021/04/23 05:53:03;;;;;;;17.07;6.40;;;6.40;89.90;;;;;;5034754;28;20579;-85
2021/04/23 05:55:29;;;;;;;23.50;6.63;;;6.50;89.50;;;;;;5016900;28;20025;-83
2021/04/23 05:57:58;;;;;;;20.63;7.03;;;6.50;89.80;;;;;;5020625;28;20035;-83
2021/04/23 06:00:26;;;;;;;18.58;6.88;;;6.60;89.60;;;;;;5018121;28;20060;-84
2021/04/23 06:02:53;;;;;;;17.87;6.67;;;6.70;88.70;;;;;;5018592;28;20086;-83
2021/04/23 06:05:19;;;;;;;21.23;6.53;;;6.80;87.90;;;;;;5037491;28;20024;-83
2021/04/23 06:07:45;;;;;;;17.83;6.30;;;7.00;87.50;;;;;;5026351;28;20025;-82
2021/04/23 06:10:14;;;;;;;22.77;6.80;;;7.00;87.40;;;;;;5017599;28;20037;-83
2021/04/23 06:12:41;;;;;;;23.83;6.50;;;7.00;87.30;;;;;;5037260;28;20025;-84
2021/04/23 06:15:09;;;;;;;21.27;5.97;;;7.10;86.60;;;;;;5019459;28;20079;-83
2021/04/23 06:17:35;;;;;;;16.20;6.20;;;7.20;85.90;;;;;;5016937;28;20045;-84
2021/04/23 06:20:03;;;;;;;18.03;5.93;;;7.20;85.80;;;;;;5017039;28;20511;-83
2021/04/23 06:22:29;;;;;;;16.37;5.50;;;7.20;86.10;;;;;;5016423;28;20028;-84
2021/04/23 06:24:54;;;;;;;29.03;6.70;;;7.20;85.10;;;;;;5015468;28;20025;-84
2021/04/23 06:27:20;;;;;;;17.33;5.50;;;7.30;85.20;;;;;;5032552;28;20030;-83
2021/04/23 06:29:47;;;;;;;22.10;6.03;;;7.30;85.10;;;;;;5015399;28;20057;-84
2021/04/23 06:32:13;;;;;;;24.43;6.53;;;7.30;85.00;;;;;;5017726;28;20580;-84
2021/04/23 06:34:38;;;;;;;16.93;5.97;;;7.50;84.60;;;;;;5021316;28;20025;-83
2021/04/23 06:37:04;;;;;;;20.23;5.80;;;7.50;84.60;;;;;;5017688;28;20104;-82
2021/04/23 06:39:30;;;;;;;18.73;4.50;;;7.50;84.30;;;;;;5034858;28;20025;-82
2021/04/23 06:41:55;;;;;;;16.67;4.37;;;7.30;82.80;;;;;;5017225;28;20029;-82
2021/04/23 06:44:21;;;;;;;16.07;5.03;;;7.40;83.40;;;;;;5017861;28;20029;-83
2021/04/23 06:46:47;;;;;;;15.37;4.63;;;7.40;82.40;;;;;;5016590;28;20095;-82
2021/04/23 06:49:13;;;;;;;13.43;4.63;;;7.50;83.00;;;;;;5035565;28;20021;-84
2021/04/23 06:51:39;;;;;;;14.87;4.77;;;7.60;82.20;;;;;;5037681;28;20036;-83
2021/04/23 06:54:06;;;;;;;13.77;4.10;;;7.60;81.30;;;;;;5018617;28;20108;-83
2021/04/23 06:56:32;;;;;;;14.90;4.13;;;7.50;82.00;;;;;;5037273;28;20034;-83
2021/04/23 06:58:58;;;;;;;16.67;3.97;;;7.70;81.90;;;;;;5035569;28;20350;-84
2021/04/23 07:01:24;;;;;;;16.10;4.20;;;7.70;79.30;;;;;;5036082;28;20026;-83
2021/04/23 07:03:49;;;;;;;8.43;2.80;;;7.70;79.80;;;;;;5017534;28;20036;-83
2021/04/23 07:06:15;;;;;;;11.67;2.93;;;7.70;79.00;;;;;;5034691;28;20030;-84
2021/04/23 07:08:41;;;;;;;9.37;2.70;;;7.50;77.70;;;;;;5034457;28;20035;-84
2021/04/23 07:11:07;;;;;;;9.50;2.67;;;7.50;77.80;;;;;;5015757;28;20057;-82
2021/04/23 07:13:33;;;;;;;8.27;3.63;;;7.60;78.40;;;;;;5033834;28;20106;-80
2021/04/23 07:15:58;;;;;;;12.20;3.00;;;7.70;78.00;;;;;;5034449;28;20036;-81
2021/04/23 07:18:26;;;;;;;10.43;2.90;;;7.80;78.00;;;;;;5033986;28;20029;-82
2021/04/23 07:20:53;;;;;;;9.93;2.93;;;7.90;77.90;;;;;;5014587;28;20543;-81
2021/04/23 07:23:19;;;;;;;11.90;3.03;;;7.90;78.80;;;;;;5015598;28;20049;-83
2021/04/23 07:25:44;;;;;;;13.03;3.20;;;8.00;79.90;;;;;;5015524;28;20025;-80
2021/04/23 07:28:10;;;;;;;10.10;3.27;;;7.90;79.30;;;;;;5015220;28;20029;-81
2021/04/23 07:30:38;;;;;;;12.93;2.90;;;8.00;78.20;;;;;;5023863;28;20051;-82
2021/04/23 07:33:05;;;;;;;10.83;3.40;;;7.90;76.70;;;;;;5034244;28;20021;-82
2021/04/23 07:35:32;;;;;;;11.37;3.40;;;8.00;76.70;;;;;;5035286;28;20028;-81
2021/04/23 07:37:58;;;;;;;7.97;2.80;;;8.00;76.80;;;;;;5034755;28;20466;-82
2021/04/23 07:40:24;;;;;;;11.67;3.07;;;8.00;77.20;;;;;;5052082;28;20021;-81
2021/04/23 07:42:51;;;;;;;11.10;3.10;;;7.90;76.70;;;;;;5035017;28;20025;-83
2021/04/23 07:45:17;;;;;;;11.60;3.43;;;7.80;76.90;;;;;;5034732;28;20074;-82
2021/04/23 07:47:44;;;;;;;13.53;2.97;;;7.90;77.20;;;;;;5033149;28;20024;-82
2021/04/23 07:50:15;;;;;;;11.90;2.77;;;7.90;76.80;;;;;;5032646;28;20025;-83
2021/04/23 07:52:41;;;;;;;15.03;5.33;;;7.90;76.10;;;;;;5050985;28;20025;-82
2021/04/23 07:55:08;;;;;;;9.13;3.60;;;7.80;76.60;;;;;;5034453;28;20485;-83
2021/04/23 07:57:35;;;;;;;10.87;3.87;;;7.90;77.10;;;;;;5033771;28;20044;-82
2021/04/23 08:00:01;;;;;;;17.37;3.40;;;7.90;76.30;;;;;;5032279;28;20025;-82
2021/04/23 08:02:27;;;;;;;11.13;3.63;;;8.00;75.70;;;;;;5050735;28;20028;-82
2021/04/23 08:04:52;;;;;;;12.27;3.23;;;8.00;76.50;;;;;;5032404;28;20535;-82
2021/04/23 08:07:18;;;;;;;11.83;3.07;;;8.00;76.10;;;;;;5033295;28;20041;-83
2021/04/23 08:09:44;;;;;;;11.63;3.67;;;8.10;76.60;;;;;;5032940;28;20033;-82
2021/04/23 08:12:11;;;;;;;10.43;3.10;;;8.00;75.70;;;;;;5033502;28;20029;-82
2021/04/23 08:14:37;;;;;;;7.53;2.83;;;8.10;75.70;;;;;;5035726;28;20449;-84
2021/04/23 08:17:02;;;;;;;9.83;3.07;;;8.20;75.50;;;;;;5036152;28;20028;-84
2021/04/23 08:19:28;;;;;;;12.63;3.20;;;8.20;75.50;;;;;;5053326;28;20414;-83
2021/04/23 08:21:54;;;;;;;10.03;2.93;;;8.20;75.70;;;;;;5036260;28;20017;-82
2021/04/23 08:24:19;;;;;;;10.73;3.03;;;8.30;75.40;;;;;;5035419;28;20032;-86
2021/04/23 08:26:46;;;;;;;9.03;2.73;;;8.30;75.40;;;;;;5034344;28;20599;-80
2021/04/23 08:29:11;;;;;;;10.53;2.97;;;8.30;75.00;;;;;;5051564;28;20156;-81
2021/04/23 08:31:39;;;;;;;7.93;3.00;;;8.30;74.90;;;;;;5053498;28;20112;-83
2021/04/23 08:34:05;;;;;;;10.07;3.10;;;8.30;75.20;;;;;;5039315;28;20437;-82
2021/04/23 08:36:31;;;;;;;14.37;2.93;;;8.30;75.60;;;;;;5039206;28;20040;-81
2021/04/23 08:38:57;;;;;;;9.87;3.37;;;8.30;75.40;;;;;;5056440;28;20021;-80
2021/04/23 08:41:23;;;;;;;14.53;3.27;;;8.20;76.00;;;;;;5040582;28;20025;-80
2021/04/23 08:43:49;;;;;;;11.37;3.23;;;8.10;75.80;;;;;;5040495;28;20468;-81
2021/04/23 08:46:14;;;;;;;9.30;3.07;;;8.20;76.40;;;;;;5058945;28;20021;-80
2021/04/23 08:48:41;;;;;;;11.27;3.00;;;8.30;75.90;;;;;;5040031;28;20037;-80
2021/04/23 08:51:08;;;;;;;9.17;3.07;;;8.40;75.90;;;;;;5038029;28;20025;-80
2021/04/23 08:53:34;;;;;;;12.60;3.50;;;8.40;76.30;;;;;;5038313;28;20029;-80
2021/04/23 08:56:00;;;;;;;6.70;2.93;;;8.30;76.40;;;;;;5056489;28;20508;-80
2021/04/23 08:58:26;;;;;;;9.27;3.07;;;8.30;75.80;;;;;;5056219;28;20049;-80
2021/04/23 09:00:51;;;;;;;10.03;3.77;;;8.40;76.30;;;;;;5055751;28;20436;-79
2021/04/23 09:03:21;;;;;;;12.07;3.67;;;8.30;75.80;;;;;;5056347;28;20509;-80
2021/04/23 09:06:06;;;;;;;11.80;3.20;;;8.20;75.70;;;;;;5043641;28;20017;-79
2021/04/23 09:08:32;;;;;;;12.13;3.73;;;8.30;76.10;;;;;;5054475;28;20055;-79
2021/04/23 09:10:58;;;;;;;9.10;3.63;;;8.40;76.00;;;;;;5034381;28;20037;-79
2021/04/23 09:13:24;;;;;;;13.73;3.43;;;8.40;75.70;;;;;;5035095;28;20430;-80
2021/04/23 09:15:55;;;;;;;9.87;3.60;;;8.50;76.30;;;;;;5017809;28;20087;-80
2021/04/23 09:18:21;;;;;;;12.40;3.40;;;8.50;75.60;;;;;;5015792;28;20482;-79
2021/04/23 09:20:59;;;;;;;10.73;3.97;;;8.60;75.50;;;;;;5034398;28;20368;-79
2021/04/23 09:23:25;;;;;;;9.77;3.20;;;8.60;75.40;;;;;;5017115;28;20052;-80
2021/04/23 09:25:53;;;;;;;11.27;3.47;;;8.60;75.60;;;;;;5017232;28;20041;-79
2021/04/23 09:28:35;;;;;;;13.37;3.73;;;8.70;74.80;;;;;;5034487;28;20530;-80
2021/04/23 09:31:19;;;;;;;10.80;3.10;;;8.80;74.80;;;;;;5016503;28;20045;-80
2021/04/23 09:33:53;;;;;;;9.83;3.30;;;8.80;73.70;;;;;;5016929;28;20056;-80
2021/04/23 09:36:43;;;;;;;13.77;3.60;;;8.80;73.70;;;;;;5028336;28;20124;-80
2021/04/23 09:39:22;;;;;;;10.00;3.40;;;8.80;73.20;;;;;;5054638;28;20041;-80
2021/04/23 09:41:54;;;;;;;14.00;3.53;;;8.80;73.70;;;;;;5052940;28;20116;-80
2021/04/23 09:44:44;;;;;;;10.73;3.53;;;8.80;73.60;;;;;;5035890;28;20025;-80
2021/04/23 09:47:23;;;;;;;12.73;3.80;;;8.90;73.80;;;;;;5049275;28;20036;-79
2021/04/23 09:49:56;;;;;;;9.00;2.97;;;9.00;73.40;;;;;;5034197;28;20101;-80
2021/04/23 09:52:24;;;;;;;10.50;3.40;;;9.00;73.30;;;;;;5016030;28;20124;-80
2021/04/23 09:54:52;;;;;;;11.10;3.63;;;9.10;71.80;;;;;;5034983;28;20029;-80
2021/04/23 09:57:22;;;;;;;9.98;3.38;;;9.00;71.20;;;;;;5016855;28;20033;-80
2021/04/23 09:59:55;;;;;;;10.07;3.30;;;9.10;71.50;;;;;;5016307;28;20025;-79
2021/04/23 10:02:26;;;;;;;9.80;3.40;;;9.10;71.40;;;;;;5035165;28;20357;-79
2021/04/23 10:04:52;;;;;;;8.40;3.33;;;9.20;70.70;;;;;;5035030;28;20028;-80
2021/04/23 10:07:20;;;;;;;7.37;2.90;;;9.20;70.50;;;;;;5017006;28;20033;-82
2021/04/23 10:10:09;;;;;;;11.37;3.73;;;9.20;70.10;;;;;;5011824;28;20051;-82
2021/04/23 10:12:52;;;;;;;16.02;4.20;;;9.20;70.70;;;;;;5034100;28;20021;-81
2021/04/23 10:15:34;;;;;;;11.43;4.10;;;9.30;70.30;;;;;;5016644;28;20056;-82
2021/04/23 10:18:06;;;;;;;11.97;4.20;;;9.30;69.70;;;;;;5018761;28;20044;-82
2021/04/23 10:20:34;;;;;;;11.07;3.70;;;9.30;69.70;;;;;;5040614;28;20028;-81
2021/04/23 10:23:02;;;;;;;12.73;4.63;;;9.30;69.00;;;;;;5055111;28;20420;-82
2021/04/23 10:25:29;;;;;;;12.37;3.67;;;9.30;68.90;;;;;;5055272;28;20568;-82
2021/04/23 10:27:58;;;;;;;12.10;3.70;;;9.40;70.30;;;;;;5037308;28;20047;-81
2021/04/23 10:30:30;;;;;;;8.10;3.97;;;9.50;69.10;;;;;;5023137;28;20582;-80
2021/04/23 10:33:01;;;;;;;12.83;3.83;;;9.40;69.30;;;;;;5036086;28;20065;-81
2021/04/23 10:35:27;;;;;;;15.53;3.50;;;9.40;70.10;;;;;;5018572;28;20121;-82
2021/04/23 10:37:58;;;;;;;12.03;3.80;;;9.50;69.60;;;;;;5036324;28;20064;-82
2021/04/23 10:40:24;;;;;;;10.70;3.50;;;9.60;68.10;;;;;;5017449;28;20030;-82
2021/04/23 10:42:50;;;;;;;14.93;4.00;;;9.60;68.10;;;;;;5018171;28;20536;-82
2021/04/23 10:45:18;;;;;;;11.47;4.57;;;9.60;68.00;;;;;;5017856;28;20021;-82
2021/04/23 10:47:43;;;;;;;11.03;3.30;;;9.60;67.40;;;;;;5036032;28;20099;-80
2021/04/23 10:50:15;;;;;;;10.67;3.43;;;9.70;67.30;;;;;;5042180;28;20026;-80
2021/04/23 10:53:03;;;;;;;12.73;3.63;;;9.70;68.20;;;;;;5017218;28;20022;-80
2021/04/23 10:55:46;;;;;;;12.47;3.40;;;9.80;68.20;;;;;;5017845;28;20033;-80
2021/04/23 10:58:15;;;;;;;9.20;3.20;;;9.80;68.50;;;;;;5036023;28;20076;-81
2021/04/23 11:00:49;;;;;;;9.02;3.38;;;9.80;68.50;;;;;;5017192;28;20072;-81
2021/04/23 11:03:20;;;;;;;10.90;3.60;;;9.90;68.60;;;;;;5045910;28;20036;-82
2021/04/23 11:05:57;;;;;;;15.30;4.30;;;9.90;67.80;;;;;;5030728;28;20021;-82
2021/04/23 11:08:24;;;;;;;12.87;3.43;;;9.90;67.00;;;;;;5022808;28;20099;-80
2021/04/23 11:11:02;;;;;;;11.73;3.00;;;9.90;67.30;;;;;;5035186;28;20037;-80
2021/04/23 11:13:33;;;;;;;8.90;3.17;;;10.00;68.20;;;;;;5036748;28;20021;-80
2021/04/23 11:16:18;;;;;;;10.97;3.63;;;10.10;66.80;;;;;;5036004;28;20025;-80
2021/04/23 11:18:44;;;;;;;10.17;3.27;;;10.00;66.60;;;;;;5053867;28;20041;-80
2021/04/23 11:21:35;;;;;;;13.37;3.60;;;10.10;66.60;;;;;;5053926;28;20036;-80
2021/04/23 11:24:20;;;;;;;10.27;2.90;;;10.10;65.30;;;;;;5055036;28;20473;-79
2021/04/23 11:26:55;;;;;;;13.47;3.60;;;10.10;65.50;;;;;;5054668;28;20037;-80
2021/04/23 11:29:23;;;;;;;11.67;3.07;;;10.10;65.70;;;;;;5054066;28;20036;-80
2021/04/23 11:32:17;;;;;;;8.30;3.20;;;10.20;67.50;;;;;;5036810;28;20623;-80
2021/04/23 11:34:43;;;;;;;9.30;3.40;;;10.20;67.10;;;;;;5054378;28;20472;-80
2021/04/23 11:37:16;;;;;;;9.33;3.70;;;10.20;66.30;;;;;;5054297;28;20033;-80
2021/04/23 11:39:48;;;;;;;10.50;3.20;;;10.30;66.40;;;;;;5053103;28;20089;-80
2021/04/23 11:42:39;;;;;;;10.13;3.50;;;10.20;65.30;;;;;;5053938;28;20842;-80
2021/04/23 11:45:11;;;;;;;6.07;2.60;;;10.20;65.60;;;;;;5027142;28;20041;-80
2021/04/23 11:47:49;;;;;;;10.90;2.73;;;10.30;66.00;;;;;;5017703;28;20065;-80
2021/04/23 11:50:24;;;;;;;10.27;3.10;;;10.40;64.20;;;;;;5016558;28;20048;-81
2021/04/23 11:52:53;;;;;;;8.60;2.90;;;10.40;64.20;;;;;;5017485;28;20040;-81
2021/04/23 11:55:22;;;;;;;8.50;2.72;;;10.40;63.00;;;;;;5016051;28;20082;-81
2021/04/23 11:57:51;;;;;;;13.00;3.07;;;10.30;63.20;;;;;;5034826;28;20033;-81
2021/04/23 12:00:19;;;;;;;9.17;3.03;;;10.40;63.60;;;;;;5038671;28;20023;-82
2021/04/23 12:02:58;;;;;;;8.40;2.73;;;10.50;63.40;;;;;;5035047;28;20025;-81
2021/04/23 12:05:33;;;;;;;8.45;3.30;;;10.60;62.90;;;;;;5041126;28;20272;-82
2021/04/23 12:08:02;;;;;;;7.67;2.83;;;10.70;61.90;;;;;;5057063;28;20031;-81
2021/04/23 12:10:41;;;;;;;6.37;2.57;;;10.70;62.10;;;;;;5037863;28;20030;-81
2021/04/23 12:13:15;;;;;;;8.90;3.10;;;10.70;63.40;;;;;;5020316;28;20431;-81
2021/04/23 12:15:48;;;;;;;6.10;2.70;;;10.70;63.30;;;;;;5021574;28;20029;-81
2021/04/23 12:18:15;;;;;;;11.00;3.20;;;10.70;63.70;;;;;;5020631;28;20482;-81
2021/04/23 12:20:46;;;;;;;13.23;3.30;;;10.80;64.40;;;;;;5019886;28;20448;-81
2021/04/23 12:23:14;;;;;;;8.40;2.90;;;10.90;64.20;;;;;;5036391;28;20025;-81
2021/04/23 12:25:55;;;;;;;7.00;2.60;;;10.90;63.70;;;;;;5037466;28;20387;-81
2021/04/23 12:28:35;;;;;;;7.47;2.53;;;10.90;63.50;;;;;;5020072;28;20064;-81
2021/04/23 12:31:22;;;;;;;13.20;3.07;;;10.90;62.80;;;;;;5016392;28;20100;-81
2021/04/23 12:33:53;;;;;;;8.33;3.10;;;11.10;62.40;;;;;;5021745;28;20021;-81
2021/04/23 12:36:25;;;;;;;7.97;2.87;;;11.00;60.70;;;;;;5021158;28;20032;-81
2021/04/23 12:39:01;;;;;;;9.27;2.93;;;11.00;61.70;;;;;;5039173;28;20022;-81
2021/04/23 12:41:35;;;;;;;7.23;2.50;;;11.00;61.90;;;;;;5039194;28;20193;-82
2021/04/23 12:44:09;;;;;;;6.07;2.83;;;11.00;61.40;;;;;;5039177;28;20597;-81
2021/04/23 12:46:55;;;;;;;9.97;3.20;;;11.00;60.30;;;;;;5039708;28;20434;-81
2021/04/23 12:49:27;;;;;;;7.30;3.03;;;11.00;59.20;;;;;;5039263;28;20025;-81
2021/04/23 12:51:58;;;;;;;8.33;3.63;;;11.00;60.30;;;;;;5021352;28;20025;-81
2021/04/23 12:54:36;;;;;;;5.97;2.70;;;11.10;59.80;;;;;;5036218;28;20032;-82
2021/04/23 12:57:05;;;;;;;6.70;2.40;;;11.00;59.70;;;;;;5036962;28;20021;-81